sensor_id;sensor_type;location;lat;lon;timestamp;pressure;altitude;pressure_sealevel;temperature
11849;BMP180;5983;49.966;8.052;2023-09-19T00:00:56;99992.00;;;17.90
11849;BMP180;5983;49.966;8.052;2023-09-19T00:03:23;99985.00;;;17.90
11849;BMP180;5983;49.966;8.052;2023-09-19T00:05:52;99986.00;;;17.90
11849;BMP180;5983;49.966;8.052;2023-09-19T00:08:19;99991.00;;;17.80
11849;BMP180;5983;49.966;8.052;2023-09-19T00:10:49;99988.00;;;17.80
11849;BMP180;5983;49.966;8.052;2023-09-19T00:13:16;99998.00;;;17.80
11849;BMP180;5983;49.966;8.052;2023-09-19T00:15:46;99997.00;;;17.70
11849;BMP180;5983;49.966;8.052;2023-09-19T00:18:14;100004.00;;;17.70
11849;BMP180;5983;49.966;8.052;2023-09-19T00:20:42;99997.00;;;17.70
11849;BMP180;5983;49.966;8.052;2023-09-19T00:23:14;100005.00;;;17.60
11849;BMP180;5983;49.966;8.052;2023-09-19T00:25:41;99997.00;;;17.60
11849;BMP180;5983;49.966;8.052;2023-09-19T00:28:07;99997.00;;;17.50
11849;BMP180;5983;49.966;8.052;2023-09-19T00:30:35;99983.00;;;17.60
11849;BMP180;5983;49.966;8.052;2023-09-19T00:33:04;99988.00;;;17.50
11849;BMP180;5983;49.966;8.052;2023-09-19T00:35:33;99987.00;;;17.50
11849;BMP180;5983;49.966;8.052;2023-09-19T00:38:00;99995.00;;;17.50
11849;BMP180;5983;49.966;8.052;2023-09-19T00:40:28;99990.00;;;17.50
11849;BMP180;5983;49.966;8.052;2023-09-19T00:42:57;99989.00;;;17.50
11849;BMP180;5983;49.966;8.052;2023-09-19T00:45:25;100006.00;;;17.50
11849;BMP180;5983;49.966;8.052;2023-09-19T00:47:52;100007.00;;;17.40
11849;BMP180;5983;49.966;8.052;2023-09-19T00:50:21;100011.00;;;17.40
11849;BMP180;5983;49.966;8.052;2023-09-19T00:52:52;100015.00;;;17.40
11849;BMP180;5983;49.966;8.052;2023-09-19T00:55:21;100021.00;;;17.30
11849;BMP180;5983;49.966;8.052;2023-09-19T00:57:51;100034.00;;;17.40
11849;BMP180;5983;49.966;8.052;2023-09-19T01:00:18;100035.00;;;17.30
11849;BMP180;5983;49.966;8.052;2023-09-19T01:02:46;100035.00;;;17.30
11849;BMP180;5983;49.966;8.052;2023-09-19T01:05:13;100032.00;;;17.30
11849;BMP180;5983;49.966;8.052;2023-09-19T01:07:41;100036.00;;;17.30
11849;BMP180;5983;49.966;8.052;2023-09-19T01:10:10;100038.00;;;17.30
11849;BMP180;5983;49.966;8.052;2023-09-19T01:12:45;100051.00;;;17.20
11849;BMP180;5983;49.966;8.052;2023-09-19T01:15:21;100052.00;;;17.10
11849;BMP180;5983;49.966;8.052;2023-09-19T01:17:53;100046.00;;;17.10
11849;BMP180;5983;49.966;8.052;2023-09-19T01:20:28;100056.00;;;17.10
11849;BMP180;5983;49.966;8.052;2023-09-19T01:23:10;100059.00;;;17.10
11849;BMP180;5983;49.966;8.052;2023-09-19T01:26:05;100066.00;;;17.10
11849;BMP180;5983;49.966;8.052;2023-09-19T01:28:53;100058.00;;;17.20
11849;BMP180;5983;49.966;8.052;2023-09-19T01:31:28;100064.00;;;17.20
11849;BMP180;5983;49.966;8.052;2023-09-19T01:34:00;100075.00;;;17.20
11849;BMP180;5983;49.966;8.052;2023-09-19T01:36:31;100066.00;;;17.20
11849;BMP180;5983;49.966;8.052;2023-09-19T01:39:00;100073.00;;;17.20
11849;BMP180;5983;49.966;8.052;2023-09-19T01:41:57;100077.00;;;17.10
11849;BMP180;5983;49.966;8.052;2023-09-19T01:44:38;100067.00;;;17.10
11849;BMP180;5983;49.966;8.052;2023-09-19T01:47:13;100075.00;;;17.20
11849;BMP180;5983;49.966;8.052;2023-09-19T01:49:50;100083.00;;;17.10
11849;BMP180;5983;49.966;8.052;2023-09-19T01:52:28;100082.00;;;17.10
11849;BMP180;5983;49.966;8.052;2023-09-19T01:55:01;100083.00;;;17.10
11849;BMP180;5983;49.966;8.052;2023-09-19T01:57:34;100089.00;;;17.10
11849;BMP180;5983;49.966;8.052;2023-09-19T02:00:06;100089.00;;;17.10
11849;BMP180;5983;49.966;8.052;2023-09-19T02:02:36;100095.00;;;17.00
11849;BMP180;5983;49.966;8.052;2023-09-19T02:05:04;100102.00;;;17.00
11849;BMP180;5983;49.966;8.052;2023-09-19T02:07:32;100093.00;;;17.00
11849;BMP180;5983;49.966;8.052;2023-09-19T02:09:58;100100.00;;;17.00
11849;BMP180;5983;49.966;8.052;2023-09-19T02:12:25;100096.00;;;16.90
11849;BMP180;5983;49.966;8.052;2023-09-19T02:14:52;100097.00;;;16.90
11849;BMP180;5983;49.966;8.052;2023-09-19T02:17:19;100107.00;;;17.00
11849;BMP180;5983;49.966;8.052;2023-09-19T02:19:48;100103.00;;;16.90
11849;BMP180;5983;49.966;8.052;2023-09-19T02:22:15;100114.00;;;16.90
11849;BMP180;5983;49.966;8.052;2023-09-19T02:24:41;100109.00;;;16.90
11849;BMP180;5983;49.966;8.052;2023-09-19T02:27:08;100104.00;;;16.80
11849;BMP180;5983;49.966;8.052;2023-09-19T02:29:38;100113.00;;;16.80
11849;BMP180;5983;49.966;8.052;2023-09-19T02:32:05;100116.00;;;16.80
11849;BMP180;5983;49.966;8.052;2023-09-19T02:34:32;100118.00;;;16.70
11849;BMP180;5983;49.966;8.052;2023-09-19T02:37:03;100116.00;;;16.70
11849;BMP180;5983;49.966;8.052;2023-09-19T02:39:33;100119.00;;;16.70
11849;BMP180;5983;49.966;8.052;2023-09-19T02:42:00;100109.00;;;16.70
11849;BMP180;5983;49.966;8.052;2023-09-19T02:44:29;100114.00;;;16.70
11849;BMP180;5983;49.966;8.052;2023-09-19T02:46:56;100105.00;;;16.70
11849;BMP180;5983;49.966;8.052;2023-09-19T02:49:24;100118.00;;;16.60
11849;BMP180;5983;49.966;8.052;2023-09-19T02:51:51;100121.00;;;16.60
11849;BMP180;5983;49.966;8.052;2023-09-19T02:54:20;100121.00;;;16.60
11849;BMP180;5983;49.966;8.052;2023-09-19T02:56:49;100128.00;;;16.60
11849;BMP180;5983;49.966;8.052;2023-09-19T02:59:16;100126.00;;;16.60
11849;BMP180;5983;49.966;8.052;2023-09-19T03:01:45;100134.00;;;16.50
11849;BMP180;5983;49.966;8.052;2023-09-19T03:04:13;100134.00;;;16.50
11849;BMP180;5983;49.966;8.052;2023-09-19T03:06:45;100134.00;;;16.40
11849;BMP180;5983;49.966;8.052;2023-09-19T03:09:14;100133.00;;;16.40
11849;BMP180;5983;49.966;8.052;2023-09-19T03:11:43;100130.00;;;16.40
11849;BMP180;5983;49.966;8.052;2023-09-19T03:14:12;100146.00;;;16.40
11849;BMP180;5983;49.966;8.052;2023-09-19T03:16:40;100140.00;;;16.30
11849;BMP180;5983;49.966;8.052;2023-09-19T03:19:10;100146.00;;;16.30
11849;BMP180;5983;49.966;8.052;2023-09-19T03:21:37;100147.00;;;16.30
11849;BMP180;5983;49.966;8.052;2023-09-19T03:24:05;100156.00;;;16.30
11849;BMP180;5983;49.966;8.052;2023-09-19T03:26:32;100158.00;;;16.30
11849;BMP180;5983;49.966;8.052;2023-09-19T03:29:03;100149.00;;;16.30
11849;BMP180;5983;49.966;8.052;2023-09-19T03:31:32;100158.00;;;16.30
11849;BMP180;5983;49.966;8.052;2023-09-19T03:34:02;100148.00;;;16.20
11849;BMP180;5983;49.966;8.052;2023-09-19T03:36:30;100152.00;;;16.20
11849;BMP180;5983;49.966;8.052;2023-09-19T03:39:00;100148.00;;;16.10
11849;BMP180;5983;49.966;8.052;2023-09-19T03:41:27;100154.00;;;16.10
11849;BMP180;5983;49.966;8.052;2023-09-19T03:43:54;100159.00;;;16.10
11849;BMP180;5983;49.966;8.052;2023-09-19T03:46:22;100166.00;;;16.10
11849;BMP180;5983;49.966;8.052;2023-09-19T03:48:50;100152.00;;;16.10
11849;BMP180;5983;49.966;8.052;2023-09-19T03:51:17;100165.00;;;16.00
11849;BMP180;5983;49.966;8.052;2023-09-19T03:53:44;100165.00;;;16.00
11849;BMP180;5983;49.966;8.052;2023-09-19T03:56:14;100162.00;;;16.00
11849;BMP180;5983;49.966;8.052;2023-09-19T03:58:41;100170.00;;;16.00
11849;BMP180;5983;49.966;8.052;2023-09-19T04:01:08;100157.00;;;16.00
11849;BMP180;5983;49.966;8.052;2023-09-19T04:03:37;100171.00;;;16.00
11849;BMP180;5983;49.966;8.052;2023-09-19T04:06:12;100170.00;;;16.00
11849;BMP180;5983;49.966;8.052;2023-09-19T04:08:40;100181.00;;;16.00
11849;BMP180;5983;49.966;8.052;2023-09-19T04:11:07;100172.00;;;16.00
11849;BMP180;5983;49.966;8.052;2023-09-19T04:13:34;100170.00;;;15.90
11849;BMP180;5983;49.966;8.052;2023-09-19T04:16:01;100182.00;;;15.90
11849;BMP180;5983;49.966;8.052;2023-09-19T04:18:29;100176.00;;;15.90
11849;BMP180;5983;49.966;8.052;2023-09-19T04:21:00;100183.00;;;15.90
11849;BMP180;5983;49.966;8.052;2023-09-19T04:23:29;100177.00;;;15.80
11849;BMP180;5983;49.966;8.052;2023-09-19T04:25:57;100177.00;;;15.80
11849;BMP180;5983;49.966;8.052;2023-09-19T04:28:24;100181.00;;;15.80
11849;BMP180;5983;49.966;8.052;2023-09-19T04:30:54;100176.00;;;15.70
11849;BMP180;5983;49.966;8.052;2023-09-19T04:33:21;100178.00;;;15.70
11849;BMP180;5983;49.966;8.052;2023-09-19T04:35:49;100184.00;;;15.60
11849;BMP180;5983;49.966;8.052;2023-09-19T04:38:19;100182.00;;;15.60
11849;BMP180;5983;49.966;8.052;2023-09-19T04:40:47;100188.00;;;15.70
11849;BMP180;5983;49.966;8.052;2023-09-19T04:43:17;100182.00;;;15.70
11849;BMP180;5983;49.966;8.052;2023-09-19T04:45:44;100177.00;;;15.70
11849;BMP180;5983;49.966;8.052;2023-09-19T04:48:12;100187.00;;;15.70
11849;BMP180;5983;49.966;8.052;2023-09-19T04:50:41;100194.00;;;15.70
11849;BMP180;5983;49.966;8.052;2023-09-19T04:53:09;100197.00;;;15.70
11849;BMP180;5983;49.966;8.052;2023-09-19T04:55:38;100198.00;;;15.70
11849;BMP180;5983;49.966;8.052;2023-09-19T04:58:05;100194.00;;;15.70
11849;BMP180;5983;49.966;8.052;2023-09-19T05:00:32;100199.00;;;15.70
11849;BMP180;5983;49.966;8.052;2023-09-19T05:03:00;100204.00;;;15.70
11849;BMP180;5983;49.966;8.052;2023-09-19T05:05:29;100210.00;;;15.70
11849;BMP180;5983;49.966;8.052;2023-09-19T05:07:56;100207.00;;;15.70
11849;BMP180;5983;49.966;8.052;2023-09-19T05:10:24;100212.00;;;15.70
11849;BMP180;5983;49.966;8.052;2023-09-19T05:12:59;100210.00;;;15.70
11849;BMP180;5983;49.966;8.052;2023-09-19T05:15:27;100223.00;;;15.70
11849;BMP180;5983;49.966;8.052;2023-09-19T05:28:32;100238.00;;;15.70
11849;BMP180;5983;49.966;8.052;2023-09-19T05:31:00;100241.00;;;15.80
11849;BMP180;5983;49.966;8.052;2023-09-19T05:33:27;100244.00;;;15.80
11849;BMP180;5983;49.966;8.052;2023-09-19T05:35:56;100249.00;;;15.80
11849;BMP180;5983;49.966;8.052;2023-09-19T05:38:23;100254.00;;;15.80
11849;BMP180;5983;49.966;8.052;2023-09-19T05:40:51;100248.00;;;15.80
11849;BMP180;5983;49.966;8.052;2023-09-19T05:43:18;100252.00;;;15.80
11849;BMP180;5983;49.966;8.052;2023-09-19T05:45:46;100245.00;;;15.90
11849;BMP180;5983;49.966;8.052;2023-09-19T05:48:14;100245.00;;;15.90
11849;BMP180;5983;49.966;8.052;2023-09-19T05:50:41;100253.00;;;16.00
11849;BMP180;5983;49.966;8.052;2023-09-19T05:53:09;100255.00;;;16.00
11849;BMP180;5983;49.966;8.052;2023-09-19T05:55:37;100254.00;;;16.00
11849;BMP180;5983;49.966;8.052;2023-09-19T05:58:04;100256.00;;;16.10
11849;BMP180;5983;49.966;8.052;2023-09-19T06:00:30;100253.00;;;16.10
11849;BMP180;5983;49.966;8.052;2023-09-19T06:02:59;100259.00;;;16.20
11849;BMP180;5983;49.966;8.052;2023-09-19T06:05:27;100254.00;;;16.30
11849;BMP180;5983;49.966;8.052;2023-09-19T06:07:55;100256.00;;;16.40
11849;BMP180;5983;49.966;8.052;2023-09-19T06:10:25;100259.00;;;16.50
11849;BMP180;5983;49.966;8.052;2023-09-19T06:12:56;100263.00;;;16.60
11849;BMP180;5983;49.966;8.052;2023-09-19T06:15:23;100265.00;;;16.90
11849;BMP180;5983;49.966;8.052;2023-09-19T06:17:51;100275.00;;;17.10
11849;BMP180;5983;49.966;8.052;2023-09-19T06:20:22;100278.00;;;17.30
11849;BMP180;5983;49.966;8.052;2023-09-19T06:22:51;100282.00;;;17.20
11849;BMP180;5983;49.966;8.052;2023-09-19T06:25:18;100285.00;;;17.20
11849;BMP180;5983;49.966;8.052;2023-09-19T06:27:46;100289.00;;;17.20
11849;BMP180;5983;49.966;8.052;2023-09-19T06:30:13;100289.00;;;17.20
11849;BMP180;5983;49.966;8.052;2023-09-19T06:32:40;100284.00;;;17.20
11849;BMP180;5983;49.966;8.052;2023-09-19T06:35:11;100291.00;;;17.20
11849;BMP180;5983;49.966;8.052;2023-09-19T06:37:40;100297.00;;;17.20
11849;BMP180;5983;49.966;8.052;2023-09-19T06:40:08;100299.00;;;17.20
11849;BMP180;5983;49.966;8.052;2023-09-19T06:42:39;100292.00;;;17.20
11849;BMP180;5983;49.966;8.052;2023-09-19T06:45:08;100300.00;;;17.30
11849;BMP180;5983;49.966;8.052;2023-09-19T06:47:37;100305.00;;;17.30
11849;BMP180;5983;49.966;8.052;2023-09-19T06:50:04;100316.00;;;17.30
11849;BMP180;5983;49.966;8.052;2023-09-19T06:52:31;100309.00;;;17.40
11849;BMP180;5983;49.966;8.052;2023-09-19T06:55:00;100313.00;;;17.50
11849;BMP180;5983;49.966;8.052;2023-09-19T06:57:28;100323.00;;;17.60
11849;BMP180;5983;49.966;8.052;2023-09-19T06:59:56;100334.00;;;17.70
11849;BMP180;5983;49.966;8.052;2023-09-19T07:02:22;100332.00;;;17.80
11849;BMP180;5983;49.966;8.052;2023-09-19T07:04:49;100337.00;;;17.90
11849;BMP180;5983;49.966;8.052;2023-09-19T07:07:17;100338.00;;;18.00
11849;BMP180;5983;49.966;8.052;2023-09-19T07:09:43;100350.00;;;18.10
11849;BMP180;5983;49.966;8.052;2023-09-19T07:12:12;100349.00;;;18.10
11849;BMP180;5983;49.966;8.052;2023-09-19T07:14:39;100352.00;;;18.20
11849;BMP180;5983;49.966;8.052;2023-09-19T07:17:06;100363.00;;;18.30
11849;BMP180;5983;49.966;8.052;2023-09-19T07:19:33;100361.00;;;18.50
11849;BMP180;5983;49.966;8.052;2023-09-19T07:22:00;100360.00;;;18.60
11849;BMP180;5983;49.966;8.052;2023-09-19T07:24:28;100367.00;;;18.70
11849;BMP180;5983;49.966;8.052;2023-09-19T07:26:55;100372.00;;;18.90
11849;BMP180;5983;49.966;8.052;2023-09-19T07:29:23;100369.00;;;19.10
11849;BMP180;5983;49.966;8.052;2023-09-19T07:31:51;100375.00;;;19.30
11849;BMP180;5983;49.966;8.052;2023-09-19T07:34:18;100381.00;;;19.50
11849;BMP180;5983;49.966;8.052;2023-09-19T07:36:46;100392.00;;;19.70
11849;BMP180;5983;49.966;8.052;2023-09-19T07:39:13;100388.00;;;19.90
11849;BMP180;5983;49.966;8.052;2023-09-19T07:41:40;100394.00;;;20.00
11849;BMP180;5983;49.966;8.052;2023-09-19T07:44:07;100400.00;;;20.10
11849;BMP180;5983;49.966;8.052;2023-09-19T07:46:35;100418.00;;;20.10
11849;BMP180;5983;49.966;8.052;2023-09-19T07:49:02;100409.00;;;20.10
11849;BMP180;5983;49.966;8.052;2023-09-19T07:51:29;100410.00;;;20.30
11849;BMP180;5983;49.966;8.052;2023-09-19T07:53:55;100410.00;;;20.50
11849;BMP180;5983;49.966;8.052;2023-09-19T07:56:22;100402.00;;;20.60
11849;BMP180;5983;49.966;8.052;2023-09-19T07:58:49;100413.00;;;20.70
11849;BMP180;5983;49.966;8.052;2023-09-19T08:01:17;100412.00;;;20.70
11849;BMP180;5983;49.966;8.052;2023-09-19T08:03:45;100413.00;;;20.90
11849;BMP180;5983;49.966;8.052;2023-09-19T08:06:12;100419.00;;;21.30
11849;BMP180;5983;49.966;8.052;2023-09-19T08:08:39;100415.00;;;21.70
11849;BMP180;5983;49.966;8.052;2023-09-19T08:11:06;100424.00;;;22.00
11849;BMP180;5983;49.966;8.052;2023-09-19T08:13:37;100433.00;;;22.20
11849;BMP180;5983;49.966;8.052;2023-09-19T08:16:06;100431.00;;;22.60
11849;BMP180;5983;49.966;8.052;2023-09-19T08:18:33;100429.00;;;23.00
11849;BMP180;5983;49.966;8.052;2023-09-19T08:21:01;100444.00;;;23.40
11849;BMP180;5983;49.966;8.052;2023-09-19T08:23:28;100453.00;;;23.50
11849;BMP180;5983;49.966;8.052;2023-09-19T08:25:56;100449.00;;;23.60
11849;BMP180;5983;49.966;8.052;2023-09-19T08:28:23;100444.00;;;23.80
11849;BMP180;5983;49.966;8.052;2023-09-19T08:30:50;100452.00;;;23.90
11849;BMP180;5983;49.966;8.052;2023-09-19T08:33:18;100449.00;;;24.20
11849;BMP180;5983;49.966;8.052;2023-09-19T08:35:45;100447.00;;;24.50
11849;BMP180;5983;49.966;8.052;2023-09-19T08:38:13;100461.00;;;24.80
11849;BMP180;5983;49.966;8.052;2023-09-19T08:40:41;100452.00;;;24.40
11849;BMP180;5983;49.966;8.052;2023-09-19T08:43:09;100463.00;;;23.90
11849;BMP180;5983;49.966;8.052;2023-09-19T08:45:36;100460.00;;;23.60
11849;BMP180;5983;49.966;8.052;2023-09-19T08:48:16;100456.00;;;23.40
11849;BMP180;5983;49.966;8.052;2023-09-19T08:50:49;100457.00;;;23.50
11849;BMP180;5983;49.966;8.052;2023-09-19T08:53:26;100464.00;;;24.40
11849;BMP180;5983;49.966;8.052;2023-09-19T08:55:55;100474.00;;;25.20
11849;BMP180;5983;49.966;8.052;2023-09-19T08:58:26;100475.00;;;25.80
11849;BMP180;5983;49.966;8.052;2023-09-19T09:00:56;100487.00;;;26.30
11849;BMP180;5983;49.966;8.052;2023-09-19T09:03:25;100480.00;;;26.60
11849;BMP180;5983;49.966;8.052;2023-09-19T09:05:52;100487.00;;;26.80
11849;BMP180;5983;49.966;8.052;2023-09-19T09:08:20;100483.00;;;27.30
11849;BMP180;5983;49.966;8.052;2023-09-19T09:10:48;100484.00;;;27.70
11849;BMP180;5983;49.966;8.052;2023-09-19T09:13:16;100486.00;;;28.10
11849;BMP180;5983;49.966;8.052;2023-09-19T09:15:44;100481.00;;;28.30
11849;BMP180;5983;49.966;8.052;2023-09-19T09:18:11;100476.00;;;28.60
11849;BMP180;5983;49.966;8.052;2023-09-19T09:20:38;100486.00;;;28.50
11849;BMP180;5983;49.966;8.052;2023-09-19T09:23:05;100489.00;;;28.50
11849;BMP180;5983;49.966;8.052;2023-09-19T09:25:50;100487.00;;;28.60
11849;BMP180;5983;49.966;8.052;2023-09-19T09:28:21;100493.00;;;28.30
11849;BMP180;5983;49.966;8.052;2023-09-19T09:30:48;100502.00;;;28.30
11849;BMP180;5983;49.966;8.052;2023-09-19T09:33:16;100482.00;;;28.30
11849;BMP180;5983;49.966;8.052;2023-09-19T09:35:51;100488.00;;;27.90
11849;BMP180;5983;49.966;8.052;2023-09-19T09:38:23;100489.00;;;26.90
11849;BMP180;5983;49.966;8.052;2023-09-19T09:40:56;100479.00;;;26.30
11849;BMP180;5983;49.966;8.052;2023-09-19T09:43:33;100481.00;;;26.80
11849;BMP180;5983;49.966;8.052;2023-09-19T09:46:11;100482.00;;;27.70
11849;BMP180;5983;49.966;8.052;2023-09-19T09:48:58;100479.00;;;28.30
11849;BMP180;5983;49.966;8.052;2023-09-19T09:51:42;100487.00;;;28.90
11849;BMP180;5983;49.966;8.052;2023-09-19T09:54:11;100488.00;;;29.30
11849;BMP180;5983;49.966;8.052;2023-09-19T09:56:54;100493.00;;;30.00
11849;BMP180;5983;49.966;8.052;2023-09-19T09:59:44;100489.00;;;30.30
11849;BMP180;5983;49.966;8.052;2023-09-19T10:02:13;100482.00;;;30.50
11849;BMP180;5983;49.966;8.052;2023-09-19T10:04:42;100482.00;;;30.50
11849;BMP180;5983;49.966;8.052;2023-09-19T10:07:27;100488.00;;;29.80
11849;BMP180;5983;49.966;8.052;2023-09-19T10:09:58;100482.00;;;29.80
11849;BMP180;5983;49.966;8.052;2023-09-19T10:12:39;100489.00;;;30.20
11849;BMP180;5983;49.966;8.052;2023-09-19T10:15:11;100491.00;;;30.00
11849;BMP180;5983;49.966;8.052;2023-09-19T10:17:42;100489.00;;;30.50
11849;BMP180;5983;49.966;8.052;2023-09-19T10:20:12;100489.00;;;31.30
11849;BMP180;5983;49.966;8.052;2023-09-19T10:22:59;100484.00;;;32.40
11849;BMP180;5983;49.966;8.052;2023-09-19T10:25:27;100501.00;;;32.60
11849;BMP180;5983;49.966;8.052;2023-09-19T10:28:00;100488.00;;;32.30
11849;BMP180;5983;49.966;8.052;2023-09-19T10:30:31;100493.00;;;32.60
11849;BMP180;5983;49.966;8.052;2023-09-19T10:33:01;100495.00;;;32.70
11849;BMP180;5983;49.966;8.052;2023-09-19T10:35:28;100487.00;;;32.70
11849;BMP180;5983;49.966;8.052;2023-09-19T10:37:59;100482.00;;;32.50
11849;BMP180;5983;49.966;8.052;2023-09-19T10:40:27;100486.00;;;32.20
11849;BMP180;5983;49.966;8.052;2023-09-19T10:43:01;100486.00;;;31.90
11849;BMP180;5983;49.966;8.052;2023-09-19T10:45:31;100484.00;;;32.00
11849;BMP180;5983;49.966;8.052;2023-09-19T10:47:58;100488.00;;;32.20
11849;BMP180;5983;49.966;8.052;2023-09-19T10:50:26;100476.00;;;32.30
11849;BMP180;5983;49.966;8.052;2023-09-19T10:53:00;100477.00;;;32.30
11849;BMP180;5983;49.966;8.052;2023-09-19T10:55:31;100478.00;;;32.40
11849;BMP180;5983;49.966;8.052;2023-09-19T10:58:02;100479.00;;;32.40
11849;BMP180;5983;49.966;8.052;2023-09-19T11:00:53;100480.00;;;32.80
11849;BMP180;5983;49.966;8.052;2023-09-19T11:03:21;100474.00;;;32.90
11849;BMP180;5983;49.966;8.052;2023-09-19T11:06:04;100478.00;;;33.00
11849;BMP180;5983;49.966;8.052;2023-09-19T11:08:55;100463.00;;;33.00
11849;BMP180;5983;49.966;8.052;2023-09-19T11:11:51;100467.00;;;32.70
11849;BMP180;5983;49.966;8.052;2023-09-19T11:14:40;100459.00;;;31.90
11849;BMP180;5983;49.966;8.052;2023-09-19T11:17:33;100450.00;;;30.60
11849;BMP180;5983;49.966;8.052;2023-09-19T11:20:22;100460.00;;;29.50
11849;BMP180;5983;49.966;8.052;2023-09-19T11:23:23;100441.00;;;30.00
11849;BMP180;5983;49.966;8.052;2023-09-19T11:25:53;100447.00;;;29.90
11849;BMP180;5983;49.966;8.052;2023-09-19T11:28:35;100444.00;;;30.00
11849;BMP180;5983;49.966;8.052;2023-09-19T11:31:42;100444.00;;;30.40
11849;BMP180;5983;49.966;8.052;2023-09-19T11:34:41;100430.00;;;30.50
11849;BMP180;5983;49.966;8.052;2023-09-19T11:40:24;100429.00;;;28.80
11849;BMP180;5983;49.966;8.052;2023-09-19T11:42:51;100445.00;;;28.50
11849;BMP180;5983;49.966;8.052;2023-09-19T11:46:05;100441.00;;;28.80
11849;BMP180;5983;49.966;8.052;2023-09-19T11:48:34;100427.00;;;28.80
11849;BMP180;5983;49.966;8.052;2023-09-19T11:51:14;100443.00;;;28.90
11849;BMP180;5983;49.966;8.052;2023-09-19T11:53:45;100434.00;;;29.10
11849;BMP180;5983;49.966;8.052;2023-09-19T11:56:15;100436.00;;;29.20
11849;BMP180;5983;49.966;8.052;2023-09-19T11:58:43;100426.00;;;29.30
11849;BMP180;5983;49.966;8.052;2023-09-19T12:01:12;100439.00;;;29.30
11849;BMP180;5983;49.966;8.052;2023-09-19T12:03:52;100441.00;;;29.40
11849;BMP180;5983;49.966;8.052;2023-09-19T12:06:20;100439.00;;;29.50
11849;BMP180;5983;49.966;8.052;2023-09-19T12:08:48;100440.00;;;29.40
11849;BMP180;5983;49.966;8.052;2023-09-19T12:11:16;100443.00;;;29.40
11849;BMP180;5983;49.966;8.052;2023-09-19T12:13:46;100436.00;;;29.30
11849;BMP180;5983;49.966;8.052;2023-09-19T12:16:15;100432.00;;;29.10
11849;BMP180;5983;49.966;8.052;2023-09-19T12:18:44;100435.00;;;29.10
11849;BMP180;5983;49.966;8.052;2023-09-19T12:21:27;100425.00;;;28.70
11849;BMP180;5983;49.966;8.052;2023-09-19T12:24:00;100442.00;;;28.50
11849;BMP180;5983;49.966;8.052;2023-09-19T12:26:30;100433.00;;;28.60
11849;BMP180;5983;49.966;8.052;2023-09-19T12:29:04;100427.00;;;28.20
11849;BMP180;5983;49.966;8.052;2023-09-19T12:31:34;100427.00;;;28.00
11849;BMP180;5983;49.966;8.052;2023-09-19T12:34:02;100418.00;;;27.90
11849;BMP180;5983;49.966;8.052;2023-09-19T12:36:31;100414.00;;;28.00
11849;BMP180;5983;49.966;8.052;2023-09-19T12:38:59;100419.00;;;28.10
11849;BMP180;5983;49.966;8.052;2023-09-19T12:41:27;100412.00;;;27.90
11849;BMP180;5983;49.966;8.052;2023-09-19T12:43:54;100412.00;;;27.80
11849;BMP180;5983;49.966;8.052;2023-09-19T12:46:21;100403.00;;;27.90
11849;BMP180;5983;49.966;8.052;2023-09-19T12:49:14;100401.00;;;28.10
11849;BMP180;5983;49.966;8.052;2023-09-19T12:51:44;100396.00;;;28.00
11849;BMP180;5983;49.966;8.052;2023-09-19T12:54:11;100402.00;;;28.00
11849;BMP180;5983;49.966;8.052;2023-09-19T12:56:41;100400.00;;;28.10
11849;BMP180;5983;49.966;8.052;2023-09-19T12:59:13;100402.00;;;27.80
11849;BMP180;5983;49.966;8.052;2023-09-19T13:01:41;100391.00;;;27.40
11849;BMP180;5983;49.966;8.052;2023-09-19T13:04:13;100404.00;;;27.10
11849;BMP180;5983;49.966;8.052;2023-09-19T13:06:45;100407.00;;;26.90
11849;BMP180;5983;49.966;8.052;2023-09-19T13:09:14;100395.00;;;27.00
11849;BMP180;5983;49.966;8.052;2023-09-19T13:11:42;100393.00;;;27.30
11849;BMP180;5983;49.966;8.052;2023-09-19T13:14:16;100412.00;;;27.40
11849;BMP180;5983;49.966;8.052;2023-09-19T13:16:56;100394.00;;;27.40
11849;BMP180;5983;49.966;8.052;2023-09-19T13:19:37;100397.00;;;27.70
11849;BMP180;5983;49.966;8.052;2023-09-19T13:22:38;100407.00;;;27.70
11849;BMP180;5983;49.966;8.052;2023-09-19T13:25:08;100400.00;;;27.70
11849;BMP180;5983;49.966;8.052;2023-09-19T13:27:40;100396.00;;;27.70
11849;BMP180;5983;49.966;8.052;2023-09-19T13:30:07;100387.00;;;27.80
11849;BMP180;5983;49.966;8.052;2023-09-19T13:32:34;100396.00;;;27.90
11849;BMP180;5983;49.966;8.052;2023-09-19T13:35:01;100398.00;;;27.70
11849;BMP180;5983;49.966;8.052;2023-09-19T13:37:33;100390.00;;;27.60
11849;BMP180;5983;49.966;8.052;2023-09-19T13:40:00;100383.00;;;27.50
11849;BMP180;5983;49.966;8.052;2023-09-19T13:42:27;100387.00;;;27.50
11849;BMP180;5983;49.966;8.052;2023-09-19T13:44:55;100393.00;;;27.30
11849;BMP180;5983;49.966;8.052;2023-09-19T13:47:22;100390.00;;;27.40
11849;BMP180;5983;49.966;8.052;2023-09-19T13:49:51;100382.00;;;27.20
11849;BMP180;5983;49.966;8.052;2023-09-19T13:52:18;100387.00;;;26.70
11849;BMP180;5983;49.966;8.052;2023-09-19T13:54:46;100375.00;;;26.30
11849;BMP180;5983;49.966;8.052;2023-09-19T13:57:13;100378.00;;;26.00
11849;BMP180;5983;49.966;8.052;2023-09-19T13:59:39;100378.00;;;26.00
11849;BMP180;5983;49.966;8.052;2023-09-19T14:02:06;100385.00;;;26.20
11849;BMP180;5983;49.966;8.052;2023-09-19T14:04:33;100372.00;;;26.30
11849;BMP180;5983;49.966;8.052;2023-09-19T14:07:01;100383.00;;;26.30
11849;BMP180;5983;49.966;8.052;2023-09-19T14:09:27;100381.00;;;26.40
11849;BMP180;5983;49.966;8.052;2023-09-19T14:11:55;100372.00;;;26.20
11849;BMP180;5983;49.966;8.052;2023-09-19T14:14:22;100364.00;;;26.10
11849;BMP180;5983;49.966;8.052;2023-09-19T14:16:49;100365.00;;;26.00
11849;BMP180;5983;49.966;8.052;2023-09-19T14:19:17;100358.00;;;26.00
11849;BMP180;5983;49.966;8.052;2023-09-19T14:21:44;100359.00;;;25.90
11849;BMP180;5983;49.966;8.052;2023-09-19T14:24:16;100350.00;;;25.80
11849;BMP180;5983;49.966;8.052;2023-09-19T14:26:43;100357.00;;;25.80
11849;BMP180;5983;49.966;8.052;2023-09-19T14:29:11;100353.00;;;25.80
11849;BMP180;5983;49.966;8.052;2023-09-19T14:31:38;100354.00;;;25.80
11849;BMP180;5983;49.966;8.052;2023-09-19T14:34:06;100350.00;;;25.80
11849;BMP180;5983;49.966;8.052;2023-09-19T14:36:35;100347.00;;;25.80
11849;BMP180;5983;49.966;8.052;2023-09-19T14:39:02;100347.00;;;25.80
11849;BMP180;5983;49.966;8.052;2023-09-19T14:41:29;100349.00;;;25.70